sensor_id;sensor_type;location;lat;lon;timestamp;P1;durP1;ratioP1;P2;durP2;ratioP2
46845;SDS011;33947;46.804;134.252;2023-03-05T00:01:55;15.38;;;6.05;;
46845;SDS011;33947;46.804;134.252;2023-03-05T00:04:59;10.15;;;5.40;;
46845;SDS011;33947;46.804;134.252;2023-03-05T00:08:04;10.45;;;5.55;;
46845;SDS011;33947;46.804;134.252;2023-03-05T00:11:11;10.10;;;5.57;;
46845;SDS011;33947;46.804;134.252;2023-03-05T00:14:15;9.90;;;5.40;;
46845;SDS011;33947;46.804;134.252;2023-03-05T00:17:19;12.85;;;5.65;;
46845;SDS011;33947;46.804;134.252;2023-03-05T00:20:23;10.23;;;6.32;;
46845;SDS011;33947;46.804;134.252;2023-03-05T00:23:28;13.43;;;5.70;;
46845;SDS011;33947;46.804;134.252;2023-03-05T00:26:33;10.32;;;5.28;;
46845;SDS011;33947;46.804;134.252;2023-03-05T00:29:39;11.82;;;5.43;;
46845;SDS011;33947;46.804;134.252;2023-03-05T00:32:43;13.07;;;5.80;;
46845;SDS011;33947;46.804;134.252;2023-03-05T00:35:47;16.48;;;6.05;;
46845;SDS011;33947;46.804;134.252;2023-03-05T00:38:52;9.57;;;5.65;;
46845;SDS011;33947;46.804;134.252;2023-03-05T00:41:56;19.73;;;8.88;;
46845;SDS011;33947;46.804;134.252;2023-03-05T00:45:00;10.75;;;5.47;;
46845;SDS011;33947;46.804;134.252;2023-03-05T00:48:04;11.23;;;5.45;;
46845;SDS011;33947;46.804;134.252;2023-03-05T00:51:08;8.93;;;5.43;;
46845;SDS011;33947;46.804;134.252;2023-03-05T00:54:13;10.85;;;6.55;;
46845;SDS011;33947;46.804;134.252;2023-03-05T00:57:17;9.40;;;5.78;;
46845;SDS011;33947;46.804;134.252;2023-03-05T01:00:22;14.68;;;7.40;;
46845;SDS011;33947;46.804;134.252;2023-03-05T01:03:26;10.90;;;6.50;;
46845;SDS011;33947;46.804;134.252;2023-03-05T01:06:30;15.88;;;8.18;;
46845;SDS011;33947;46.804;134.252;2023-03-05T01:09:35;13.43;;;7.05;;
46845;SDS011;33947;46.804;134.252;2023-03-05T01:12:40;11.68;;;5.80;;
46845;SDS011;33947;46.804;134.252;2023-03-05T01:15:44;14.07;;;5.60;;
46845;SDS011;33947;46.804;134.252;2023-03-05T01:18:50;16.65;;;6.93;;
46845;SDS011;33947;46.804;134.252;2023-03-05T01:21:55;10.38;;;5.25;;
46845;SDS011;33947;46.804;134.252;2023-03-05T01:24:59;11.52;;;5.80;;
46845;SDS011;33947;46.804;134.252;2023-03-05T01:28:04;11.00;;;6.00;;
46845;SDS011;33947;46.804;134.252;2023-03-05T01:31:09;10.65;;;6.07;;
46845;SDS011;33947;46.804;134.252;2023-03-05T01:34:13;10.27;;;5.97;;
46845;SDS011;33947;46.804;134.252;2023-03-05T01:37:18;11.32;;;6.00;;
46845;SDS011;33947;46.804;134.252;2023-03-05T01:40:24;8.73;;;5.75;;
46845;SDS011;33947;46.804;134.252;2023-03-05T01:43:32;9.15;;;5.97;;
46845;SDS011;33947;46.804;134.252;2023-03-05T01:46:36;13.70;;;6.43;;
46845;SDS011;33947;46.804;134.252;2023-03-05T01:49:41;12.80;;;5.93;;
46845;SDS011;33947;46.804;134.252;2023-03-05T01:52:46;10.23;;;5.50;;
46845;SDS011;33947;46.804;134.252;2023-03-05T01:56:01;11.70;;;5.68;;
46845;SDS011;33947;46.804;134.252;2023-03-05T01:59:06;14.50;;;5.60;;
46845;SDS011;33947;46.804;134.252;2023-03-05T02:02:11;15.00;;;6.37;;
46845;SDS011;33947;46.804;134.252;2023-03-05T02:05:24;9.80;;;6.25;;
46845;SDS011;33947;46.804;134.252;2023-03-05T02:08:32;13.73;;;5.55;;
46845;SDS011;33947;46.804;134.252;2023-03-05T02:11:38;15.43;;;7.45;;
46845;SDS011;33947;46.804;134.252;2023-03-05T02:14:45;22.50;;;5.93;;
46845;SDS011;33947;46.804;134.252;2023-03-05T02:17:53;13.55;;;6.55;;
46845;SDS011;33947;46.804;134.252;2023-03-05T02:21:06;13.15;;;5.22;;
46845;SDS011;33947;46.804;134.252;2023-03-05T02:24:11;18.30;;;6.18;;
46845;SDS011;33947;46.804;134.252;2023-03-05T02:27:19;14.23;;;6.32;;
46845;SDS011;33947;46.804;134.252;2023-03-05T02:30:27;11.40;;;5.57;;
46845;SDS011;33947;46.804;134.252;2023-03-05T02:33:34;13.13;;;5.88;;
46845;SDS011;33947;46.804;134.252;2023-03-05T02:36:41;12.47;;;5.93;;
46845;SDS011;33947;46.804;134.252;2023-03-05T02:39:46;11.70;;;5.70;;
46845;SDS011;33947;46.804;134.252;2023-03-05T02:42:50;16.08;;;6.45;;
46845;SDS011;33947;46.804;134.252;2023-03-05T02:45:55;16.57;;;6.40;;
46845;SDS011;33947;46.804;134.252;2023-03-05T02:48:59;10.85;;;5.40;;
46845;SDS011;33947;46.804;134.252;2023-03-05T02:52:03;13.10;;;5.80;;
46845;SDS011;33947;46.804;134.252;2023-03-05T02:55:08;14.98;;;6.47;;
46845;SDS011;33947;46.804;134.252;2023-03-05T02:58:14;15.10;;;5.97;;
46845;SDS011;33947;46.804;134.252;2023-03-05T03:01:18;22.40;;;9.90;;
46845;SDS011;33947;46.804;134.252;2023-03-05T03:04:23;28.67;;;14.07;;
46845;SDS011;33947;46.804;134.252;2023-03-05T03:07:28;13.13;;;8.10;;
46845;SDS011;33947;46.804;134.252;2023-03-05T03:10:32;12.77;;;7.47;;
46845;SDS011;33947;46.804;134.252;2023-03-05T03:13:37;13.10;;;6.72;;
46845;SDS011;33947;46.804;134.252;2023-03-05T03:16:42;9.05;;;5.25;;
46845;SDS011;33947;46.804;134.252;2023-03-05T03:19:47;16.50;;;5.60;;
46845;SDS011;33947;46.804;134.252;2023-03-05T03:22:51;13.10;;;6.40;;
46845;SDS011;33947;46.804;134.252;2023-03-05T03:25:55;16.58;;;9.65;;
46845;SDS011;33947;46.804;134.252;2023-03-05T03:29:01;11.63;;;5.45;;
46845;SDS011;33947;46.804;134.252;2023-03-05T03:32:05;14.85;;;7.28;;
46845;SDS011;33947;46.804;134.252;2023-03-05T03:35:11;12.63;;;7.25;;
46845;SDS011;33947;46.804;134.252;2023-03-05T03:38:16;10.02;;;5.38;;
46845;SDS011;33947;46.804;134.252;2023-03-05T03:41:20;34.08;;;24.00;;
46845;SDS011;33947;46.804;134.252;2023-03-05T03:44:26;13.10;;;10.40;;
46845;SDS011;33947;46.804;134.252;2023-03-05T03:47:31;13.63;;;5.55;;
46845;SDS011;33947;46.804;134.252;2023-03-05T03:50:39;20.20;;;6.88;;
46845;SDS011;33947;46.804;134.252;2023-03-05T03:53:44;8.43;;;6.03;;
46845;SDS011;33947;46.804;134.252;2023-03-05T03:56:48;9.05;;;5.68;;
46845;SDS011;33947;46.804;134.252;2023-03-05T03:59:53;17.15;;;11.45;;
46845;SDS011;33947;46.804;134.252;2023-03-05T04:02:57;12.80;;;6.35;;
46845;SDS011;33947;46.804;134.252;2023-03-05T04:06:02;11.23;;;8.48;;
46845;SDS011;33947;46.804;134.252;2023-03-05T04:09:07;10.45;;;5.80;;
46845;SDS011;33947;46.804;134.252;2023-03-05T04:12:12;10.27;;;5.05;;
46845;SDS011;33947;46.804;134.252;2023-03-05T04:15:20;10.70;;;5.90;;
46845;SDS011;33947;46.804;134.252;2023-03-05T04:18:24;10.88;;;5.93;;
46845;SDS011;33947;46.804;134.252;2023-03-05T04:21:29;9.30;;;4.85;;
46845;SDS011;33947;46.804;134.252;2023-03-05T04:24:33;9.15;;;5.00;;
46845;SDS011;33947;46.804;134.252;2023-03-05T04:27:38;12.40;;;5.07;;
46845;SDS011;33947;46.804;134.252;2023-03-05T04:30:45;7.85;;;5.00;;
46845;SDS011;33947;46.804;134.252;2023-03-05T04:33:49;10.32;;;5.50;;
46845;SDS011;33947;46.804;134.252;2023-03-05T04:36:54;15.27;;;8.95;;
46845;SDS011;33947;46.804;134.252;2023-03-05T04:39:58;9.93;;;5.00;;
46845;SDS011;33947;46.804;134.252;2023-03-05T04:43:03;9.13;;;5.50;;
46845;SDS011;33947;46.804;134.252;2023-03-05T04:46:08;9.35;;;4.97;;
46845;SDS011;33947;46.804;134.252;2023-03-05T04:49:12;10.98;;;6.35;;
46845;SDS011;33947;46.804;134.252;2023-03-05T04:52:18;8.80;;;5.32;;
46845;SDS011;33947;46.804;134.252;2023-03-05T04:55:22;7.38;;;5.35;;
46845;SDS011;33947;46.804;134.252;2023-03-05T04:58:26;7.70;;;5.38;;
46845;SDS011;33947;46.804;134.252;2023-03-05T05:01:31;13.00;;;5.60;;
46845;SDS011;33947;46.804;134.252;2023-03-05T05:04:37;11.95;;;5.57;;
46845;SDS011;33947;46.804;134.252;2023-03-05T05:07:42;11.57;;;4.60;;
46845;SDS011;33947;46.804;134.252;2023-03-05T05:10:54;9.38;;;4.72;;
46845;SDS011;33947;46.804;134.252;2023-03-05T05:13:59;11.57;;;5.57;;
46845;SDS011;33947;46.804;134.252;2023-03-05T05:17:04;11.30;;;5.85;;
46845;SDS011;33947;46.804;134.252;2023-03-05T05:20:09;8.68;;;5.07;;
46845;SDS011;33947;46.804;134.252;2023-03-05T05:23:14;9.05;;;4.88;;
46845;SDS011;33947;46.804;134.252;2023-03-05T05:26:19;10.57;;;4.32;;
46845;SDS011;33947;46.804;134.252;2023-03-05T05:29:23;11.13;;;4.75;;
46845;SDS011;33947;46.804;134.252;2023-03-05T05:32:28;8.35;;;4.60;;
46845;SDS011;33947;46.804;134.252;2023-03-05T05:35:32;8.85;;;4.55;;
46845;SDS011;33947;46.804;134.252;2023-03-05T05:38:37;15.50;;;6.07;;
46845;SDS011;33947;46.804;134.252;2023-03-05T05:41:42;10.33;;;6.37;;
46845;SDS011;33947;46.804;134.252;2023-03-05T05:44:46;15.88;;;7.45;;
46845;SDS011;33947;46.804;134.252;2023-03-05T05:47:50;86.10;;;31.73;;
46845;SDS011;33947;46.804;134.252;2023-03-05T05:50:55;17.77;;;7.35;;
46845;SDS011;33947;46.804;134.252;2023-03-05T05:53:59;110.50;;;35.28;;
46845;SDS011;33947;46.804;134.252;2023-03-05T05:57:04;92.03;;;36.03;;
46845;SDS011;33947;46.804;134.252;2023-03-05T06:00:10;29.75;;;15.18;;
46845;SDS011;33947;46.804;134.252;2023-03-05T06:03:19;17.98;;;10.20;;
46845;SDS011;33947;46.804;134.252;2023-03-05T06:06:23;29.80;;;18.92;;
46845;SDS011;33947;46.804;134.252;2023-03-05T06:09:28;18.65;;;10.55;;
46845;SDS011;33947;46.804;134.252;2023-03-05T06:12:33;14.00;;;9.68;;
46845;SDS011;33947;46.804;134.252;2023-03-05T06:15:37;12.43;;;5.43;;
46845;SDS011;33947;46.804;134.252;2023-03-05T06:18:43;10.52;;;5.07;;
46845;SDS011;33947;46.804;134.252;2023-03-05T06:21:47;7.20;;;4.70;;
46845;SDS011;33947;46.804;134.252;2023-03-05T06:24:52;11.00;;;5.97;;
46845;SDS011;33947;46.804;134.252;2023-03-05T06:27:56;20.38;;;11.15;;
46845;SDS011;33947;46.804;134.252;2023-03-05T06:34:18;17.02;;;8.38;;
46845;SDS011;33947;46.804;134.252;2023-03-05T06:37:23;22.23;;;10.90;;
46845;SDS011;33947;46.804;134.252;2023-03-05T06:40:27;22.27;;;11.98;;
46845;SDS011;33947;46.804;134.252;2023-03-05T06:43:32;32.65;;;18.50;;
46845;SDS011;33947;46.804;134.252;2023-03-05T06:46:39;36.22;;;22.05;;
46845;SDS011;33947;46.804;134.252;2023-03-05T06:49:45;17.95;;;8.68;;
46845;SDS011;33947;46.804;134.252;2023-03-05T06:52:50;10.60;;;6.38;;
46845;SDS011;33947;46.804;134.252;2023-03-05T06:55:54;11.10;;;5.32;;
46845;SDS011;33947;46.804;134.252;2023-03-05T06:58:58;10.98;;;4.97;;
46845;SDS011;33947;46.804;134.252;2023-03-05T07:02:03;11.30;;;7.18;;
46845;SDS011;33947;46.804;134.252;2023-03-05T07:05:07;26.38;;;13.75;;
46845;SDS011;33947;46.804;134.252;2023-03-05T07:08:12;13.30;;;6.40;;
46845;SDS011;33947;46.804;134.252;2023-03-05T07:11:18;10.98;;;5.40;;
46845;SDS011;33947;46.804;134.252;2023-03-05T07:14:23;24.30;;;13.02;;
46845;SDS011;33947;46.804;134.252;2023-03-05T07:17:27;14.70;;;7.60;;
46845;SDS011;33947;46.804;134.252;2023-03-05T07:20:33;15.93;;;8.88;;
46845;SDS011;33947;46.804;134.252;2023-03-05T07:23:38;37.78;;;18.75;;
46845;SDS011;33947;46.804;134.252;2023-03-05T07:26:42;14.38;;;7.22;;
46845;SDS011;33947;46.804;134.252;2023-03-05T07:29:49;11.82;;;5.72;;
46845;SDS011;33947;46.804;134.252;2023-03-05T07:32:53;9.48;;;6.13;;
46845;SDS011;33947;46.804;134.252;2023-03-05T07:35:57;11.30;;;5.60;;
46845;SDS011;33947;46.804;134.252;2023-03-05T07:39:01;14.90;;;7.00;;
46845;SDS011;33947;46.804;134.252;2023-03-05T07:42:07;10.98;;;6.03;;
46845;SDS011;33947;46.804;134.252;2023-03-05T07:45:25;9.38;;;5.50;;
46845;SDS011;33947;46.804;134.252;2023-03-05T07:48:29;12.30;;;5.65;;
46845;SDS011;33947;46.804;134.252;2023-03-05T07:51:34;13.77;;;5.53;;
46845;SDS011;33947;46.804;134.252;2023-03-05T07:54:38;9.15;;;5.65;;
46845;SDS011;33947;46.804;134.252;2023-03-05T07:57:43;10.65;;;6.05;;
46845;SDS011;33947;46.804;134.252;2023-03-05T08:00:47;10.90;;;5.53;;
46845;SDS011;33947;46.804;134.252;2023-03-05T08:03:52;11.75;;;5.65;;
46845;SDS011;33947;46.804;134.252;2023-03-05T08:06:57;16.90;;;11.02;;
46845;SDS011;33947;46.804;134.252;2023-03-05T08:10:02;18.75;;;10.45;;
46845;SDS011;33947;46.804;134.252;2023-03-05T08:13:08;16.85;;;7.75;;
46845;SDS011;33947;46.804;134.252;2023-03-05T08:16:13;16.02;;;9.13;;
46845;SDS011;33947;46.804;134.252;2023-03-05T08:19:22;17.17;;;9.60;;
46845;SDS011;33947;46.804;134.252;2023-03-05T08:22:27;13.27;;;8.68;;
46845;SDS011;33947;46.804;134.252;2023-03-05T08:25:34;15.65;;;7.20;;
46845;SDS011;33947;46.804;134.252;2023-03-05T08:31:44;14.48;;;8.68;;
46845;SDS011;33947;46.804;134.252;2023-03-05T08:34:49;25.33;;;16.65;;
46845;SDS011;33947;46.804;134.252;2023-03-05T08:37:54;25.88;;;12.10;;
46845;SDS011;33947;46.804;134.252;2023-03-05T08:40:58;21.48;;;8.93;;
46845;SDS011;33947;46.804;134.252;2023-03-05T08:44:03;23.57;;;10.87;;
46845;SDS011;33947;46.804;134.252;2023-03-05T08:47:08;17.70;;;10.82;;
46845;SDS011;33947;46.804;134.252;2023-03-05T08:50:12;13.60;;;8.83;;
46845;SDS011;33947;46.804;134.252;2023-03-05T08:53:16;19.23;;;9.27;;
46845;SDS011;33947;46.804;134.252;2023-03-05T08:56:21;16.83;;;10.10;;
46845;SDS011;33947;46.804;134.252;2023-03-05T08:59:25;14.68;;;9.30;;
46845;SDS011;33947;46.804;134.252;2023-03-05T09:02:29;18.00;;;7.63;;
46845;SDS011;33947;46.804;134.252;2023-03-05T09:05:34;38.45;;;16.67;;
46845;SDS011;33947;46.804;134.252;2023-03-05T09:08:40;38.83;;;16.30;;
46845;SDS011;33947;46.804;134.252;2023-03-05T09:11:46;26.30;;;12.07;;
46845;SDS011;33947;46.804;134.252;2023-03-05T09:14:51;19.17;;;11.38;;
46845;SDS011;33947;46.804;134.252;2023-03-05T09:17:57;25.77;;;14.43;;
46845;SDS011;33947;46.804;134.252;2023-03-05T09:21:09;29.48;;;14.30;;
46845;SDS011;33947;46.804;134.252;2023-03-05T09:24:15;22.55;;;12.93;;
46845;SDS011;33947;46.804;134.252;2023-03-05T09:27:19;29.92;;;14.50;;
46845;SDS011;33947;46.804;134.252;2023-03-05T09:30:25;32.40;;;13.82;;
46845;SDS011;33947;46.804;134.252;2023-03-05T09:36:35;44.45;;;19.13;;
46845;SDS011;33947;46.804;134.252;2023-03-05T09:39:40;46.30;;;19.48;;
46845;SDS011;33947;46.804;134.252;2023-03-05T09:43:00;29.67;;;14.33;;
46845;SDS011;33947;46.804;134.252;2023-03-05T09:46:27;57.28;;;20.50;;
46845;SDS011;33947;46.804;134.252;2023-03-05T09:49:42;38.50;;;18.13;;
46845;SDS011;33947;46.804;134.252;2023-03-05T09:53:00;19.23;;;9.77;;
46845;SDS011;33947;46.804;134.252;2023-03-05T09:56:20;12.95;;;7.53;;
46845;SDS011;33947;46.804;134.252;2023-03-05T10:02:33;46.33;;;20.27;;
46845;SDS011;33947;46.804;134.252;2023-03-05T10:05:55;36.20;;;14.13;;
46845;SDS011;33947;46.804;134.252;2023-03-05T10:09:06;24.98;;;12.98;;
46845;SDS011;33947;46.804;134.252;2023-03-05T10:19:12;23.30;;;9.77;;
46845;SDS011;33947;46.804;134.252;2023-03-05T10:26:07;34.67;;;16.58;;
46845;SDS011;33947;46.804;134.252;2023-03-05T10:32:53;102.38;;;42.50;;
46845;SDS011;33947;46.804;134.252;2023-03-05T10:43:26;37.42;;;21.52;;
46845;SDS011;33947;46.804;134.252;2023-03-05T10:46:51;49.45;;;27.33;;
46845;SDS011;33947;46.804;134.252;2023-03-05T10:50:09;33.35;;;20.35;;
46845;SDS011;33947;46.804;134.252;2023-03-05T10:56:39;62.78;;;34.05;;
46845;SDS011;33947;46.804;134.252;2023-03-05T10:59:48;65.40;;;36.15;;
46845;SDS011;33947;46.804;134.252;2023-03-05T11:03:03;215.15;;;82.22;;
46845;SDS011;33947;46.804;134.252;2023-03-05T11:06:11;141.45;;;62.35;;
46845;SDS011;33947;46.804;134.252;2023-03-05T11:12:36;40.90;;;20.00;;
46845;SDS011;33947;46.804;134.252;2023-03-05T11:15:41;58.25;;;30.75;;
46845;SDS011;33947;46.804;134.252;2023-03-05T11:18:45;25.75;;;15.25;;
46845;SDS011;33947;46.804;134.252;2023-03-05T11:22:33;22.43;;;13.20;;
46845;SDS011;33947;46.804;134.252;2023-03-05T11:25:21;17.83;;;8.55;;
46845;SDS011;33947;46.804;134.252;2023-03-05T11:28:33;20.10;;;11.95;;
46845;SDS011;33947;46.804;134.252;2023-03-05T11:31:41;19.50;;;9.55;;
46845;SDS011;33947;46.804;134.252;2023-03-05T11:34:46;16.20;;;9.65;;
46845;SDS011;33947;46.804;134.252;2023-03-05T11:37:58;25.73;;;12.88;;
46845;SDS011;33947;46.804;134.252;2023-03-05T11:41:06;17.90;;;10.25;;
46845;SDS011;33947;46.804;134.252;2023-03-05T11:44:13;18.88;;;10.43;;
46845;SDS011;33947;46.804;134.252;2023-03-05T11:50:35;33.88;;;17.80;;
46845;SDS011;33947;46.804;134.252;2023-03-05T11:53:44;24.35;;;13.30;;
46845;SDS011;33947;46.804;134.252;2023-03-05T11:56:52;21.60;;;12.25;;
46845;SDS011;33947;46.804;134.252;2023-03-05T11:59:58;25.27;;;16.83;;
46845;SDS011;33947;46.804;134.252;2023-03-05T12:03:16;27.63;;;15.95;;
46845;SDS011;33947;46.804;134.252;2023-03-05T12:10:02;64.60;;;28.35;;
46845;SDS011;33947;46.804;134.252;2023-03-05T12:13:27;69.55;;;31.17;;
46845;SDS011;33947;46.804;134.252;2023-03-05T12:16:45;75.05;;;33.20;;
46845;SDS011;33947;46.804;134.252;2023-03-05T12:23:18;127.28;;;48.15;;
46845;SDS011;33947;46.804;134.252;2023-03-05T12:29:56;50.92;;;19.45;;
46845;SDS011;33947;46.804;134.252;2023-03-05T12:38:31;50.50;;;20.60;;
46845;SDS011;33947;46.804;134.252;2023-03-05T12:41:38;268.25;;;68.05;;
46845;SDS011;33947;46.804;134.252;2023-03-05T12:44:43;31.73;;;13.73;;
46845;SDS011;33947;46.804;134.252;2023-03-05T12:48:39;76.10;;;30.05;;
46845;SDS011;33947;46.804;134.252;2023-03-05T12:51:26;37.38;;;16.58;;
46845;SDS011;33947;46.804;134.252;2023-03-05T12:54:37;51.40;;;22.15;;
46845;SDS011;33947;46.804;134.252;2023-03-05T12:57:51;42.65;;;19.40;;
46845;SDS011;33947;46.804;134.252;2023-03-05T13:01:38;66.70;;;27.15;;
46845;SDS011;33947;46.804;134.252;2023-03-05T13:05:19;69.78;;;30.00;;
46845;SDS011;33947;46.804;134.252;2023-03-05T13:08:38;93.78;;;35.33;;
46845;SDS011;33947;46.804;134.252;2023-03-05T13:11:47;137.48;;;55.90;;
46845;SDS011;33947;46.804;134.252;2023-03-05T13:18:11;68.57;;;28.63;;
46845;SDS011;33947;46.804;134.252;2023-03-05T13:21:26;68.78;;;28.55;;
46845;SDS011;33947;46.804;134.252;2023-03-05T13:24:40;50.50;;;22.42;;
46845;SDS011;33947;46.804;134.252;2023-03-05T13:27:45;54.47;;;24.83;;
46845;SDS011;33947;46.804;134.252;2023-03-05T13:30:54;77.63;;;29.73;;
46845;SDS011;33947;46.804;134.252;2023-03-05T13:34:07;35.30;;;15.50;;
46845;SDS011;33947;46.804;134.252;2023-03-05T13:37:17;37.03;;;16.55;;
46845;SDS011;33947;46.804;134.252;2023-03-05T13:40:28;29.95;;;13.80;;
46845;SDS011;33947;46.804;134.252;2023-03-05T13:43:40;36.95;;;17.27;;
46845;SDS011;33947;46.804;134.252;2023-03-05T13:46:52;47.03;;;19.98;;
46845;SDS011;33947;46.804;134.252;2023-03-05T13:50:20;66.28;;;34.75;;
46845;SDS011;33947;46.804;134.252;2023-03-05T13:53:27;21.15;;;10.13;;
46845;SDS011;33947;46.804;134.252;2023-03-05T13:56:36;45.22;;;19.65;;
46845;SDS011;33947;46.804;134.252;2023-03-05T13:59:51;36.22;;;16.45;;
46845;SDS011;33947;46.804;134.252;2023-03-05T14:03:00;37.50;;;19.48;;
46845;SDS011;33947;46.804;134.252;2023-03-05T14:06:24;20.17;;;11.00;;
46845;SDS011;33947;46.804;134.252;2023-03-05T14:09:41;25.05;;;12.95;;
46845;SDS011;33947;46.804;134.252;2023-03-05T14:12:49;35.95;;;17.50;;
46845;SDS011;33947;46.804;134.252;2023-03-05T14:16:07;38.27;;;15.97;;
46845;SDS011;33947;46.804;134.252;2023-03-05T14:22:38;22.35;;;12.23;;
46845;SDS011;33947;46.804;134.252;2023-03-05T14:25:44;23.85;;;12.00;;
46845;SDS011;33947;46.804;134.252;2023-03-05T14:28:52;20.90;;;13.55;;
46845;SDS011;33947;46.804;134.252;2023-03-05T14:32:01;24.60;;;13.48;;
46845;SDS011;33947;46.804;134.252;2023-03-05T14:35:18;32.15;;;17.48;;
46845;SDS011;33947;46.804;134.252;2023-03-05T14:38:27;34.55;;;16.35;;
46845;SDS011;33947;46.804;134.252;2023-03-05T14:41:40;26.77;;;14.20;;
46845;SDS011;33947;46.804;134.252;2023-03-05T14:44:45;23.27;;;12.25;;
46845;SDS011;33947;46.804;134.252;2023-03-05T14:47:50;32.83;;;14.43;;
46845;SDS011;33947;46.804;134.252;2023-03-05T14:50:55;20.83;;;10.80;;
46845;SDS011;33947;46.804;134.252;2023-03-05T14:54:00;20.57;;;10.97;;
46845;SDS011;33947;46.804;134.252;2023-03-05T14:57:04;28.05;;;14.70;;
46845;SDS011;33947;46.804;134.252;2023-03-05T15:00:22;27.17;;;15.15;;
46845;SDS011;33947;46.804;134.252;2023-03-05T15:03:30;27.55;;;14.05;;
46845;SDS011;33947;46.804;134.252;2023-03-05T15:06:36;26.40;;;11.43;;
46845;SDS011;33947;46.804;134.252;2023-03-05T15:09:42;28.67;;;15.05;;
46845;SDS011;33947;46.804;134.252;2023-03-05T15:12:47;21.17;;;11.27;;
46845;SDS011;33947;46.804;134.252;2023-03-05T15:16:01;12.82;;;7.85;;
46845;SDS011;33947;46.804;134.252;2023-03-05T15:19:11;15.02;;;8.80;;
46845;SDS011;33947;46.804;134.252;2023-03-05T15:22:16;16.05;;;8.52;;
46845;SDS011;33947;46.804;134.252;2023-03-05T15:25:21;17.95;;;9.00;;
46845;SDS011;33947;46.804;134.252;2023-03-05T15:28:28;17.05;;;8.90;;
46845;SDS011;33947;46.804;134.252;2023-03-05T15:31:33;15.88;;;10.02;;
46845;SDS011;33947;46.804;134.252;2023-03-05T15:34:41;26.08;;;8.60;;
46845;SDS011;33947;46.804;134.252;2023-03-05T15:37:45;16.27;;;8.52;;
46845;SDS011;33947;46.804;134.252;2023-03-05T15:40:50;14.20;;;8.90;;
46845;SDS011;33947;46.804;134.252;2023-03-05T15:43:54;20.67;;;8.90;;
46845;SDS011;33947;46.804;134.252;2023-03-05T15:46:58;14.98;;;8.23;;
46845;SDS011;33947;46.804;134.252;2023-03-05T15:50:03;15.35;;;8.75;;
46845;SDS011;33947;46.804;134.252;2023-03-05T15:53:08;13.77;;;8.50;;
46845;SDS011;33947;46.804;134.252;2023-03-05T15:56:15;16.77;;;9.60;;
46845;SDS011;33947;46.804;134.252;2023-03-05T15:59:20;15.95;;;9.82;;
46845;SDS011;33947;46.804;134.252;2023-03-05T16:02:24;16.95;;;9.65;;
46845;SDS011;33947;46.804;134.252;2023-03-05T16:05:32;17.50;;;9.23;;
46845;SDS011;33947;46.804;134.252;2023-03-05T16:08:38;14.88;;;8.57;;
46845;SDS011;33947;46.804;134.252;2023-03-05T16:11:46;15.43;;;8.82;;
46845;SDS011;33947;46.804;134.252;2023-03-05T16:14:53;18.60;;;10.48;;
46845;SDS011;33947;46.804;134.252;2023-03-05T16:17:59;18.38;;;10.18;;
46845;SDS011;33947;46.804;134.252;2023-03-05T16:21:07;15.15;;;9.10;;
46845;SDS011;33947;46.804;134.252;2023-03-05T16:24:12;18.65;;;8.70;;
46845;SDS011;33947;46.804;134.252;2023-03-05T16:27:17;18.70;;;9.38;;
46845;SDS011;33947;46.804;134.252;2023-03-05T16:30:21;19.40;;;11.05;;
46845;SDS011;33947;46.804;134.252;2023-03-05T16:33:25;17.25;;;9.93;;
46845;SDS011;33947;46.804;134.252;2023-03-05T16:36:30;19.05;;;9.70;;
46845;SDS011;33947;46.804;134.252;2023-03-05T16:39:37;19.52;;;10.18;;
46845;SDS011;33947;46.804;134.252;2023-03-05T16:42:43;15.55;;;9.05;;
46845;SDS011;33947;46.804;134.252;2023-03-05T16:45:47;17.27;;;9.45;;
46845;SDS011;33947;46.804;134.252;2023-03-05T16:48:52;18.23;;;9.52;;
46845;SDS011;33947;46.804;134.252;2023-03-05T16:51:57;22.63;;;9.90;;
46845;SDS011;33947;46.804;134.252;2023-03-05T16:55:18;16.70;;;9.25;;
46845;SDS011;33947;46.804;134.252;2023-03-05T16:58:22;18.40;;;10.10;;
46845;SDS011;33947;46.804;134.252;2023-03-05T17:01:26;16.13;;;9.45;;
46845;SDS011;33947;46.804;134.252;2023-03-05T17:04:33;15.70;;;9.10;;
46845;SDS011;33947;46.804;134.252;2023-03-05T17:07:38;18.50;;;9.05;;
46845;SDS011;33947;46.804;134.252;2023-03-05T17:10:42;18.38;;;10.20;;
46845;SDS011;33947;46.804;134.252;2023-03-05T17:13:46;20.88;;;10.82;;
46845;SDS011;33947;46.804;134.252;2023-03-05T17:16:51;19.42;;;11.43;;
46845;SDS011;33947;46.804;134.252;2023-03-05T17:19:55;20.73;;;12.25;;
46845;SDS011;33947;46.804;134.252;2023-03-05T17:23:00;20.52;;;11.60;;
46845;SDS011;33947;46.804;134.252;2023-03-05T17:26:09;23.10;;;10.33;;
46845;SDS011;33947;46.804;134.252;2023-03-05T17:29:15;17.70;;;10.05;;
46845;SDS011;33947;46.804;134.252;2023-03-05T17:32:21;21.00;;;11.10;;
46845;SDS011;33947;46.804;134.252;2023-03-05T17:35:25;17.75;;;10.82;;
46845;SDS011;33947;46.804;134.252;2023-03-05T17:38:30;25.42;;;12.10;;
46845;SDS011;33947;46.804;134.252;2023-03-05T17:41:35;21.33;;;11.65;;
46845;SDS011;33947;46.804;134.252;2023-03-05T17:44:40;21.48;;;9.93;;
46845;SDS011;33947;46.804;134.252;2023-03-05T17:47:45;20.10;;;9.75;;
46845;SDS011;33947;46.804;134.252;2023-03-05T17:50:49;26.05;;;10.38;;
46845;SDS011;33947;46.804;134.252;2023-03-05T17:53:54;23.42;;;11.38;;
46845;SDS011;33947;46.804;134.252;2023-03-05T17:56:58;22.90;;;11.50;;
46845;SDS011;33947;46.804;134.252;2023-03-05T18:00:03;22.02;;;11.07;;
46845;SDS011;33947;46.804;134.252;2023-03-05T18:03:13;17.80;;;10.27;;
46845;SDS011;33947;46.804;134.252;2023-03-05T18:06:17;19.38;;;10.88;;
46845;SDS011;33947;46.804;134.252;2023-03-05T18:09:23;20.63;;;9.48;;
46845;SDS011;33947;46.804;134.252;2023-03-05T18:12:30;22.60;;;10.98;;
46845;SDS011;33947;46.804;134.252;2023-03-05T18:15:35;17.65;;;9.98;;
46845;SDS011;33947;46.804;134.252;2023-03-05T18:18:43;24.73;;;10.65;;
46845;SDS011;33947;46.804;134.252;2023-03-05T18:21:48;22.87;;;10.87;;
46845;SDS011;33947;46.804;134.252;2023-03-05T18:24:53;19.70;;;9.65;;
46845;SDS011;33947;46.804;134.252;2023-03-05T18:27:59;19.73;;;10.15;;
46845;SDS011;33947;46.804;134.252;2023-03-05T18:31:05;19.13;;;10.57;;
46845;SDS011;33947;46.804;134.252;2023-03-05T18:34:10;21.88;;;10.35;;
46845;SDS011;33947;46.804;134.252;2023-03-05T18:37:14;17.02;;;9.65;;
46845;SDS011;33947;46.804;134.252;2023-03-05T18:40:19;19.85;;;10.00;;
46845;SDS011;33947;46.804;134.252;2023-03-05T18:43:25;18.63;;;10.80;;
46845;SDS011;33947;46.804;134.252;2023-03-05T18:46:30;19.10;;;12.52;;
46845;SDS011;33947;46.804;134.252;2023-03-05T18:49:35;23.15;;;12.10;;
46845;SDS011;33947;46.804;134.252;2023-03-05T18:52:40;21.27;;;10.95;;
46845;SDS011;33947;46.804;134.252;2023-03-05T18:58:51;19.05;;;10.10;;
46845;SDS011;33947;46.804;134.252;2023-03-05T19:01:55;18.35;;;10.93;;